x

Ilm2 - 5 Miles Se Of Wrightsville Beach, Nc (41038) Weather Station

2:08pm - Sat 13th Feb 2016 All times are EST. -5 hours from GMT.

  • Wind
    20mph, 27mph gusts
  • Sea Temp 50°f
  • Air Temp 39°f
  • Sea Pressure 1024mb
  • Ilm2 - 5 Miles Se Of Wrightsville Beach, Nc
  • Ilm2 - 5 Miles Se Of Wrightsville Beach, Nc

More Historic Weather Station data

Upgrade to MSW Pro to gain access to the past 30 days of data for over 8000 Wavebouys and Weather Stations around the globe.

Join Pro

Comparision Forecast

View Surf forecast
   
Sat 02/13 2:08pm 20 27 mph 1024mb 50f 39f
1:53pm 20 29 mph 1024.3mb 50f 39f
1:38pm 18 27 mph 1024.4mb 50f 39f
1:23pm 20 29 mph 1024.4mb 50f 39f
1:08pm 18 27 mph 1024.5mb 50f 39f
12:53pm 18 25 mph 1024.4mb 50f 39f
12:38pm 16 25 mph 1024.7mb 50f 39f
12:23pm 18 29 mph 1024.5mb 50f 39f
12:08pm 18 27 mph 1025mb 50f 39f
11:53am 18 22 mph 1024.9mb 50f 39f
11:38am 18 25 mph 1024.7mb 50f 38f
11:23am 16 25 mph 1024.8mb 50f 38f
11:08am 16 22 mph 1024.5mb 50f 38f
10:53am 18 22 mph 1024.6mb 50f 38f
10:38am 18 27 mph 1024.6mb 50f 38f
10:23am 18 27 mph 1024.6mb 50f 38f
9:08am 20 25 mph 1023.9mb 50f 38f
8:53am 20 27 mph 1023.8mb 50f 38f
8:38am 18 27 mph 1023.6mb 50f 38f
8:23am 20 27 mph 1023.6mb 50f 38f
8:08am 20 27 mph 1023.3mb 50f 38f
7:53am 18 25 mph 1022.8mb 50f 38f
7:38am 18 25 mph 1022.5mb 50f 39f
7:23am 18 25 mph 1022.1mb 50f 38f
7:08am 16 22 mph 1021.7mb 50f 38f
6:53am 16 22 mph 1021.7mb 50f 38f
6:38am 16 20 mph 1021.5mb 50f 38f
6:23am 16 20 mph 1021.1mb 50f 38f
6:08am 16 22 mph 1020.6mb 50f 38f
5:08am 18 25 mph 1019.4mb 50f 37f
4:53am 18 22 mph 1019.2mb 50f 37f
4:38am 18 25 mph 1019mb 50f 37f
4:23am 18 22 mph 1018.7mb 50f 38f
4:08am 16 22 mph 1018.4mb 50f 37f
3:53am 16 22 mph 1018.4mb 50f 37f
3:38am 16 22 mph 1018.4mb 50f 37f
3:23am 16 22 mph 1018.1mb 50f 37f
3:08am 16 22 mph 1017.9mb 50f 38f
2:53am 16 20 mph 1017.7mb 50f 37f
2:38am 16 20 mph 1017.5mb 50f 36f
2:23am 16 20 mph 1017.4mb 50f 36f
2:08am 13 18 mph 1017.3mb 50f 36f
1:53am 13 18 mph 1017.4mb 50f 36f
1:38am 13 18 mph 1017.3mb 51f 36f
1:23am 11 16 mph 1017.5mb 51f 36f
1:08am 11 16 mph 1017.3mb 51f 36f
12:53am 9 13 mph 1017.4mb 51f 36f
12:38am 9 11 mph 1017.3mb 51f 36f
12:23am 11 13 mph 1017mb 51f 37f
12:08am 11 16 mph 1016.9mb 51f 37f
Fri 02/12 11:08pm 13 18 mph 1016.9mb 51f 37f
10:53pm 11 18 mph 1017.6mb 51f 37f
10:38pm 11 16 mph 1017.6mb 51f 37f
10:23pm 11 16 mph 1017.8mb 51f 37f
10:08pm 16 20 mph 1018mb 51f 38f
9:53pm 16 22 mph 1017.9mb 51f 37f
9:38pm 18 27 mph 1018.1mb 51f 37f
9:23pm 18 25 mph 1018.2mb 51f 37f
9:08pm 13 20 mph 1018.1mb 51f 37f
8:53pm 13 20 mph 1017.9mb 51f 37f
8:38pm 11 16 mph 1017.7mb 51f 37f
8:23pm 11 13 mph 1017.4mb 51f 37f
8:08pm 11 16 mph 1017.5mb 51f 37f
7:53pm 11 16 mph 1017.7mb 51f 37f
7:38pm 9 16 mph 1017.6mb 51f 37f
7:23pm 9 11 mph 1017.6mb 51f 37f
7:08pm 9 13 mph 1017.4mb 51f 36f
6:53pm 9 13 mph 1017.4mb 51f 37f
6:38pm 9 13 mph 1017.1mb 51f 37f
6:23pm 9 13 mph 1017.4mb 51f 37f
6:08pm 9 13 mph 1017.1mb 51f 37f
5:53pm 13 18 mph 1016.9mb 51f 37f
5:38pm 13 16 mph 1016.8mb 51f 37f
5:08pm 13 18 mph 1016.7mb 51f 37f
4:53pm 16 20 mph 1016.8mb 51f 37f
4:38pm 13 18 mph 1016.5mb 51f 37f
4:23pm 16 20 mph 1016.8mb 51f 37f
4:08pm 13 18 mph 1016.7mb 51f 37f
3:53pm 20 25 mph 1017mb 51f 37f
3:38pm 20 25 mph 1016.5mb 51f 38f
3:23pm 18 25 mph 1016.2mb 51f 38f
3:08pm 18 25 mph 1016.2mb 51f 38f
2:53pm 20 27 mph 1016.8mb 51f 38f
2:38pm 18 25 mph 1016.6mb 51f 38f
2:23pm 20 27 mph 1016.8mb 51f 39f
1:08pm 20 27 mph 1017.9mb 51f 39f
12:53pm 22 29 mph 1018.5mb 51f 39f
12:38pm 22 29 mph 1018.9mb 51f 42f
12:23pm 22 29 mph 1018.7mb 51f 43f
12:08pm 22 27 mph 1019mb 51f 44f
11:53am 22 29 mph 1019mb 51f 44f
11:38am 22 27 mph 1019.4mb 51f 44f
11:23am 22 29 mph 1019.7mb 51f 44f
11:08am 25 31 mph 1019.5mb 51f 43f
10:53am 27 34 mph 1019.6mb 51f 43f
10:38am 25 31 mph 1020.6mb 51f 43f
10:23am 25 31 mph 1021.2mb 51f 43f
10:08am 25 31 mph 1020.9mb 51f 43f
9:53am 25 31 mph 1021.3mb 51f 43f
9:38am 25 29 mph 1021.6mb 51f 43f
9:23am 25 31 mph 1022.1mb 51f 43f
9:08am 22 29 mph 1022.3mb 51f 43f
8:53am 22 31 mph 1022.5mb 51f 43f
8:38am 22 29 mph 1022.9mb 51f 42f
8:23am 22 29 mph 1022.9mb 51f 43f
8:08am 22 31 mph 1023.1mb 50f 43f
7:53am 22 29 mph 1023.2mb 50f 43f
7:38am 22 31 mph 1023.4mb 50f 43f
7:23am 22 29 mph 1023.4mb 50f 43f
7:08am 22 29 mph 1023.3mb 50f 43f
6:53am 22 27 mph 1023.4mb 50f 43f
6:38am 22 29 mph 1023.9mb 50f 43f
6:23am 22 29 mph 1023.7mb 50f 43f
6:08am 22 29 mph 1023.5mb 50f 43f
5:53am 22 29 mph 1023.6mb 50f 43f
5:38am 22 29 mph 1023.5mb 50f 43f
5:23am 20 27 mph 1023.9mb 50f 44f
5:08am 20 27 mph 1023.7mb 50f 44f
4:53am 20 25 mph 1023.7mb 50f 45f
4:38am 18 22 mph 1023.6mb 50f 45f
4:23am 18 25 mph 1023.6mb 50f 46f
4:08am 18 25 mph 1024mb 50f 46f
3:53am 18 25 mph 1023.6mb 50f 46f
3:38am 13 18 mph 1023.7mb 50f 46f
3:23am 11 13 mph 1024.1mb 50f 46f
3:08am 11 13 mph 1024.4mb 50f 46f
2:53am 9 13 mph 1024.4mb 50f 46f
2:38am 9 11 mph 1024.6mb 50f 46f
2:23am 7 11 mph 1024.6mb 50f 46f
1:53am 7 9 mph 1025mb 50f 46f
1:08am 4 9 mph 1025.2mb 50f 46f
12:53am 4 9 mph 1025.2mb 50f 46f
12:38am 4 7 mph 1025.2mb 50f 45f
12:23am 4 7 mph 1025.3mb 50f 45f
12:08am 4 7 mph 1025.4mb 50f 45f
Thu 02/11 11:53pm 4 7 mph 1025.5mb 50f 45f
11:08pm 4 7 mph 1025.7mb 50f 45f
10:53pm 4 7 mph 1025.7mb 50f 45f
10:38pm 4 7 mph 1025.8mb 50f 45f
10:23pm 4 7 mph 1025.7mb 50f 45f
10:08pm 2 4 mph 1025.8mb 50f 45f
9:53pm 2 4 mph 1025.9mb 50f 44f
9:38pm 2 4 mph 1025.8mb 50f 45f
9:23pm 2 4 mph 1025.8mb 50f 45f
9:08pm 2 4 mph 1025.7mb 50f 45f
8:53pm 2 7 mph 1025.5mb 50f 45f
8:38pm 2 7 mph 1025.3mb 50f 45f
8:23pm 4 9 mph 1025.4mb 50f 45f
8:08pm 4 9 mph 1025.3mb 50f 45f
7:53pm 4 9 mph 1025.1mb 50f 45f
7:38pm 7 13 mph 1024.8mb 50f 45f
7:23pm 9 13 mph 1024.7mb 50f 45f
7:08pm 9 13 mph 1024.3mb 50f 45f
6:53pm 9 13 mph 1024mb 50f 45f
6:08pm 11 16 mph 1023.5mb 50f 46f
5:53pm 11 16 mph 1023.1mb 50f 46f
5:38pm 11 16 mph 1022.8mb 50f 46f
5:23pm 9 16 mph 1022.7mb 50f 46f
5:08pm 7 13 mph 1022.3mb 50f 46f
4:53pm 7 11 mph 1022.2mb 50f 46f
4:38pm 9 11 mph 1022mb 50f 45f
4:23pm 7 9 mph 1022mb 50f 46f
4:08pm 9 13 mph 1022mb 50f 45f
3:53pm 11 18 mph 1021.8mb 50f 45f
3:38pm 9 16 mph 1021.8mb 50f 44f
3:23pm 11 16 mph 1021.6mb 50f 44f
3:08pm 11 18 mph 1021.8mb 50f 44f
2:53pm 7 11 mph 1021.9mb 50f 42f
2:08pm 13 22 mph 1022mb 51f 42f
1:53pm 11 16 mph 1022.1mb 51f 42f
1:38pm 7 13 mph 1022.1mb 51f 41f
1:23pm 7 11 mph 1022.4mb 50f 40f
1:08pm 4 9 mph 1022.4mb 50f 40f
12:53pm 9 13 mph 1022.8mb 50f 39f
12:38pm 7 11 mph 1023mb 50f 39f
12:23pm 7 11 mph 1023.4mb 50f 38f
12:08pm 9 16 mph 1023.7mb 50f 38f
11:53am 9 13 mph 1024mb 51f 37f
11:38am 11 16 mph 1024mb 51f 37f
11:23am 9 16 mph 1024.2mb 51f 36f
11:08am 9 13 mph 1024.3mb 51f 35f
10:53am 11 16 mph 1024.2mb 51f 35f
9:08am 9 13 mph 1024.2mb 51f 32f
8:53am 11 18 mph 1024.1mb 50f 33f
8:38am 13 20 mph 1023.9mb 51f 33f
8:23am 16 22 mph 1023.2mb 51f 33f
8:08am 16 20 mph 1023.1mb 51f 33f
7:53am 18 22 mph 1022.8mb 51f 33f
7:38am 16 22 mph 1022.9mb 50f 33f
7:23am 18 25 mph 1022.6mb 51f 33f
7:08am 18 22 mph 1022.5mb 51f 33f
6:53am 18 25 mph 1022.3mb 51f 33f
6:38am 18 25 mph 1022.1mb 50f 33f
6:23am 20 25 mph 1021.8mb 50f 33f
5:08am 18 25 mph 1021.3mb 50f 34f
4:53am 18 25 mph 1021.1mb 50f 34f
4:38am 18 25 mph 1021.1mb 50f 34f
4:23am 18 22 mph 1021.2mb 50f 34f
4:08am 18 25 mph 1020.9mb 50f 34f
3:53am 18 25 mph 1020.4mb 50f 34f
3:38am 18 22 mph 1020.2mb 50f 35f
3:23am 18 22 mph 1019.9mb 51f 35f
3:08am 18 22 mph 1020mb 50f 35f
2:53am 18 25 mph 1019.4mb 50f 35f
2:38am 16 22 mph 1019.7mb 50f 35f
2:23am 18 22 mph 1019.8mb 50f 35f
2:08am 18 22 mph 1019.6mb 50f 36f
1:53am 20 27 mph 1019.5mb 50f 37f
1:38am 20 29 mph 1019.1mb 51f 37f
1:23am 20 29 mph 1019.4mb 51f 37f
1:08am 22 31 mph 1019.4mb 51f 37f
12:53am 20 27 mph 1019.5mb 51f 38f
12:38am 22 31 mph 1019.3mb 51f 38f
12:23am 22 29 mph 1019.3mb 51f 38f
12:08am 22 29 mph 1019.1mb 51f 38f
Wed 02/10 11:53pm 22 34 mph 1019.1mb 51f 38f
11:38pm 25 34 mph 1018.8mb 51f 38f
11:23pm 25 31 mph 1018.7mb 51f 38f
11:08pm 25 34 mph 1018.9mb 51f 38f
10:53pm 25 34 mph 1018.4mb 51f 38f
10:38pm 25 34 mph 1018.3mb 51f 38f
10:23pm 27 36 mph 1018mb 51f 38f
10:08pm 27 36 mph 1018.1mb 51f 39f
9:53pm 27 36 mph 1017.8mb 51f 39f
9:08pm 20 27 mph 1017.2mb 51f 39f
8:53pm 20 27 mph 1017mb 51f 39f
8:38pm 20 25 mph 1017mb 51f 39f
8:23pm 20 25 mph 1016.8mb 51f 39f
8:08pm 18 25 mph 1016.9mb 51f 39f
7:53pm 20 25 mph 1016.6mb 51f 39f
7:38pm 18 25 mph 1016.5mb 51f 39f
7:23pm 18 27 mph 1016.3mb 51f 39f
7:08pm 20 27 mph 1016.2mb 51f 39f
6:53pm 22 31 mph 1016.2mb 51f 39f
6:38pm 25 34 mph 1015.7mb 51f 40f
6:23pm 27 38 mph 1015.4mb 51f 40f
6:08pm 27 36 mph 1015.4mb 51f 40f
5:53pm 25 36 mph 1015.2mb 51f 40f
5:38pm 25 34 mph 1014.8mb 51f 41f
5:23pm 25 31 mph 1014.3mb 51f 41f
5:08pm 22 29 mph 1014.3mb 51f 41f
4:53pm 20 27 mph 1013.8mb 51f 42f
4:38pm 20 29 mph 1013.4mb 51f 41f
4:23pm 22 29 mph 1013.2mb 51f 41f
4:08pm 22 29 mph 1013.2mb 51f 42f
3:53pm 22 29 mph 1013mb 51f 42f
3:38pm 20 27 mph 1012.7mb 51f 41f
3:23pm 18 25 mph 1012.4mb 51f 41f
3:08pm 20 27 mph 1012.2mb 51f 42f
2:53pm 16 25 mph 1012.2mb 51f 42f
2:38pm 18 27 mph 1012.2mb 51f 42f
2:23pm 18 25 mph 1012.1mb 51f 42f
2:08pm 16 25 mph 1012.4mb 51f 41f
1:53pm 16 25 mph 1012.4mb 51f 41f
1:38pm 16 25 mph 1012.6mb 51f 41f
1:23pm 13 20 mph 1012.6mb 51f 40f
1:08pm 16 22 mph 1012.8mb 51f 40f
12:53pm 13 20 mph 1013.2mb 51f 40f
12:38pm 13 18 mph 1013.6mb 51f 39f
12:23pm 11 20 mph 1013.7mb 51f 39f
12:08pm 13 20 mph 1013.9mb 51f 39f
11:53am 13 20 mph 1014mb 51f 39f
11:38am 16 20 mph 1014.2mb 51f 39f
11:23am 11 20 mph 1014.3mb 51f 39f
11:08am 16 25 mph 1014.6mb 51f 38f
10:53am 16 20 mph 1014.8mb 51f 38f
10:38am 18 25 mph 1014.9mb 51f 38f
10:23am 16 22 mph 1015mb 51f 38f
10:08am 13 22 mph 1015.2mb 51f 37f
9:53am 16 22 mph 1015.1mb 51f 37f
9:38am 16 22 mph 1015.2mb 51f 37f
9:23am 13 20 mph 1015.1mb 51f 37f
9:08am 16 25 mph 1015.2mb 51f 37f
8:53am 16 22 mph 1015.1mb 51f 37f
8:38am 16 25 mph 1014.8mb 51f 36f
8:23am 16 22 mph 1014.7mb 51f 37f
8:08am 18 25 mph 1014.1mb 51f 36f
7:53am 18 22 mph 1014.1mb 51f 37f
7:38am 20 27 mph 1014.1mb 51f 37f
7:08am 18 25 mph 1013.9mb 51f 37f
6:53am 20 27 mph 1013.7mb 51f 37f
6:38am 18 27 mph 1013.5mb 51f 37f
6:23am 18 25 mph 1013.6mb 51f 37f
6:08am 20 27 mph 1013.2mb 51f 37f
5:53am 20 27 mph 1013.2mb 51f 37f
5:38am 18 25 mph 1013.1mb 51f 37f
5:23am 18 25 mph 1013mb 51f 37f
5:08am 18 25 mph 1012.8mb 51f 38f
4:53am 18 25 mph 1012.7mb 51f 38f
4:38am 18 27 mph 1012.2mb 51f 38f
4:23am 20 29 mph 1012.2mb 51f 38f
4:08am 20 27 mph 1011.9mb 51f 39f
3:53am 20 29 mph 1011.8mb 51f 38f
3:38am 20 31 mph 1011.6mb 51f 39f
3:23am 20 29 mph 1011.5mb 51f 39f
3:08am 20 27 mph 1011.7mb 51f 39f
2:53am 20 27 mph 1011.5mb 51f 39f
2:38am 18 27 mph 1011.5mb 51f 39f
2:23am 18 25 mph 1011.4mb 51f 40f
2:08am 20 25 mph 1011.2mb 51f 40f
1:53am 20 29 mph 1011.4mb 51f 40f
1:38am 22 29 mph 1011.3mb 51f 40f
1:23am 22 31 mph 1011.2mb 51f 40f
1:08am 22 29 mph 1011.1mb 51f 40f
12:53am 22 34 mph 1011.2mb 51f 41f
12:38am 22 31 mph 1011.1mb 51f 41f
12:23am 22 29 mph 1010.9mb 51f 41f
12:08am 25 31 mph 1011.2mb 51f 41f
Tue 02/09 11:53pm 25 34 mph 1011mb 51f 41f
11:08pm 25 34 mph 1010.9mb 51f 42f
10:53pm 25 34 mph 1010.7mb 51f 43f
10:38pm 22 31 mph 1010.8mb 51f 43f
10:23pm 25 31 mph 1010.9mb 51f 43f
10:08pm 22 29 mph 1010.6mb 51f 43f
9:53pm 22 31 mph 1010.5mb 51f 43f
9:38pm 22 31 mph 1010.4mb 51f 43f
9:23pm 20 29 mph 1010.4mb 51f 43f
9:08pm 20 27 mph 1010.2mb 51f 43f
8:53pm 20 29 mph 1010.3mb 51f 43f
8:38pm 22 34 mph 1010mb 51f 44f